Time;durP1;ratioP1;P1;durP2;ratioP2;P2;SDS_P1;SDS_P2;PMS_P1;PMS_P2;Temp;Humidity;BMP_temperature;BMP_pressure;BME280_temperature;BME280_humidity;BME280_pressure;Samples;Min_cycle;Max_cycle;Signal;HPM_P1;HPM_P2
2023/03/04 00:00:07;;;;;;;13.97;6.50;;;1.80;98.00;;;;;;5071113;28;20544;-68
2023/03/04 00:02:34;;;;;;;13.60;6.20;;;1.70;98.00;;;;;;5071074;28;20457;-68
2023/03/04 00:05:02;;;;;;;14.97;7.87;;;1.80;98.00;;;;;;5071071;28;20468;-68
2023/03/04 00:07:29;;;;;;;9.67;5.30;;;1.80;98.00;;;;;;5069950;28;20519;-68
2023/03/04 00:09:56;;;;;;;11.63;6.30;;;1.80;98.00;;;;;;5071005;28;20947;-68
2023/03/04 00:12:25;;;;;;;16.30;6.37;;;1.80;98.00;;;;;;5071005;28;20538;-69
2023/03/04 00:14:52;;;;;;;16.40;6.87;;;1.60;98.00;;;;;;5071061;28;20485;-68
2023/03/04 00:17:20;;;;;;;15.20;7.27;;;1.70;98.00;;;;;;5070994;28;20973;-68
2023/03/04 00:19:47;;;;;;;13.20;7.40;;;1.60;98.00;;;;;;5071114;28;20481;-68
2023/03/04 00:22:14;;;;;;;11.53;5.30;;;1.50;98.00;;;;;;5071018;28;20461;-68
2023/03/04 00:24:41;;;;;;;11.83;5.87;;;1.50;98.00;;;;;;5071016;28;20462;-68
2023/03/04 00:27:08;;;;;;;13.63;5.57;;;1.70;98.00;;;;;;5071157;28;20457;-68
2023/03/04 00:29:36;;;;;;;10.83;5.90;;;1.60;98.00;;;;;;5071255;28;20469;-68
2023/03/04 00:32:04;;;;;;;17.57;7.67;;;1.50;98.00;;;;;;5070872;28;20465;-68
2023/03/04 00:34:31;;;;;;;14.13;7.00;;;1.40;98.00;;;;;;5070893;28;20458;-68
2023/03/04 00:37:00;;;;;;;14.93;6.90;;;1.20;98.00;;;;;;5070936;28;20822;-68
2023/03/04 00:39:27;;;;;;;13.37;5.37;;;1.10;98.00;;;;;;5070534;28;20458;-68
2023/03/04 00:41:55;;;;;;;21.63;7.80;;;1.00;98.00;;;;;;5070777;28;20507;-68
2023/03/04 00:44:22;;;;;;;11.83;5.77;;;1.00;98.00;;;;;;5070693;28;20834;-69
2023/03/04 00:46:50;;;;;;;9.70;4.90;;;1.00;98.00;;;;;;5069456;28;20457;-68
2023/03/04 00:49:18;;;;;;;12.03;5.93;;;1.10;98.00;;;;;;5069650;28;20456;-68
2023/03/04 00:51:45;;;;;;;12.43;4.77;;;1.00;98.00;;;;;;5069562;28;20518;-68
2023/03/04 00:54:12;;;;;;;16.83;8.10;;;1.10;98.00;;;;;;5070522;28;20457;-68
2023/03/04 00:56:40;;;;;;;16.03;6.67;;;1.00;98.00;;;;;;5069269;28;20468;-69
2023/03/04 00:59:07;;;;;;;17.17;6.40;;;1.10;98.00;;;;;;5070290;28;20461;-68
2023/03/04 01:01:34;;;;;;;16.73;6.17;;;1.20;98.00;;;;;;5070602;28;20485;-68
2023/03/04 01:04:02;;;;;;;13.13;5.77;;;1.20;98.00;;;;;;5070620;28;20491;-68
2023/03/04 01:06:30;;;;;;;10.40;6.67;;;1.10;98.00;;;;;;5070469;28;20461;-68
2023/03/04 01:08:57;;;;;;;10.17;6.73;;;1.10;98.00;;;;;;5071935;28;20456;-68
2023/03/04 01:11:24;;;;;;;15.83;6.57;;;1.30;98.00;;;;;;5074207;28;20460;-68
2023/03/04 01:13:54;;;;;;;11.87;6.47;;;1.20;98.00;;;;;;5073990;28;20461;-68
2023/03/04 01:16:21;;;;;;;13.37;5.73;;;1.20;98.00;;;;;;5074129;28;20879;-68
2023/03/04 01:18:48;;;;;;;14.00;7.00;;;1.30;98.00;;;;;;5073973;28;20461;-68
2023/03/04 01:21:18;;;;;;;10.17;5.47;;;1.30;98.00;;;;;;5073988;28;20484;-68
2023/03/04 01:23:45;;;;;;;19.17;7.07;;;1.50;98.00;;;;;;5074193;28;20461;-68
2023/03/04 01:26:12;;;;;;;13.40;5.60;;;1.40;98.00;;;;;;5074366;28;20990;-68
2023/03/04 01:28:39;;;;;;;13.60;6.23;;;1.20;98.00;;;;;;5073790;28;20464;-68
2023/03/04 01:31:07;;;;;;;14.07;6.43;;;1.30;98.00;;;;;;5074165;28;20532;-68
2023/03/04 01:33:34;;;;;;;15.97;5.90;;;1.30;98.00;;;;;;5073629;28;20456;-68
2023/03/04 01:36:01;;;;;;;12.77;5.87;;;1.20;98.00;;;;;;5073713;28;20456;-68
2023/03/04 01:38:30;;;;;;;21.33;6.87;;;1.00;98.00;;;;;;5074253;28;20507;-68
2023/03/04 01:40:57;;;;;;;12.70;6.10;;;0.90;98.00;;;;;;5073904;28;20481;-68
2023/03/04 01:43:27;;;;;;;9.10;4.60;;;0.80;98.00;;;;;;5074676;28;20461;-69
2023/03/04 01:45:55;;;;;;;23.37;7.43;;;0.80;98.00;;;;;;5073974;28;20445;-68
2023/03/04 01:48:26;;;;;;;17.93;5.70;;;0.80;98.00;;;;;;5073585;28;20461;-68
2023/03/04 01:50:53;;;;;;;15.60;6.50;;;0.90;98.00;;;;;;5073636;28;20459;-68
2023/03/04 01:53:23;;;;;;;11.10;4.90;;;0.90;98.00;;;;;;5073243;28;20452;-68
2023/03/04 01:55:52;;;;;;;12.63;6.87;;;1.00;98.00;;;;;;5072936;28;20493;-68
2023/03/04 01:58:19;;;;;;;16.90;7.50;;;0.90;98.00;;;;;;5072207;28;20457;-68
2023/03/04 02:00:47;;;;;;;8.90;6.00;;;0.80;98.00;;;;;;5073428;28;20484;-68
2023/03/04 02:03:16;;;;;;;15.93;7.33;;;0.80;98.00;;;;;;5073246;28;20738;-68
2023/03/04 02:05:45;;;;;;;15.67;6.87;;;0.60;98.00;;;;;;5073527;28;20461;-68
2023/03/04 02:08:14;;;;;;;5.80;4.10;;;0.70;98.00;;;;;;5073044;28;20534;-68
2023/03/04 02:10:43;;;;;;;10.27;5.63;;;0.70;98.00;;;;;;5073036;28;20465;-68
2023/03/04 02:13:12;;;;;;;13.63;6.73;;;0.60;98.00;;;;;;5073185;28;20828;-68
2023/03/04 02:15:40;;;;;;;15.43;6.30;;;0.50;98.00;;;;;;5072891;28;20460;-68
2023/03/04 02:18:15;;;;;;;19.93;7.27;;;0.40;98.00;;;;;;5072430;28;20456;-68
2023/03/04 02:20:48;;;;;;;11.83;6.70;;;0.30;98.00;;;;;;5071273;28;20538;-68
2023/03/04 02:23:19;;;;;;;8.63;5.17;;;0.40;98.00;;;;;;5073105;28;20457;-68
2023/03/04 02:25:50;;;;;;;9.13;4.40;;;0.40;98.00;;;;;;5072930;28;20937;-68
2023/03/04 02:28:19;;;;;;;25.73;7.17;;;0.40;98.00;;;;;;5072811;28;20946;-68
2023/03/04 02:30:46;;;;;;;11.57;5.80;;;0.40;98.00;;;;;;5072500;28;20958;-68
2023/03/04 02:33:17;;;;;;;11.70;5.77;;;0.40;98.00;;;;;;5072807;28;20460;-68
2023/03/04 02:35:44;;;;;;;14.83;6.70;;;0.40;98.00;;;;;;5072394;28;20461;-68
2023/03/04 02:38:12;;;;;;;8.57;5.30;;;0.40;98.00;;;;;;5072554;28;20461;-68
2023/03/04 02:40:41;;;;;;;12.10;5.47;;;0.30;98.00;;;;;;5072253;28;20488;-68
2023/03/04 02:43:11;;;;;;;16.33;6.30;;;0.30;98.00;;;;;;5072368;28;20527;-68
2023/03/04 02:45:42;;;;;;;19.60;6.80;;;0.40;98.00;;;;;;5072248;28;21015;-68
2023/03/04 02:48:10;;;;;;;8.43;5.53;;;0.30;98.00;;;;;;5072414;28;20854;-68
2023/03/04 02:50:42;;;;;;;18.10;5.57;;;0.10;98.00;;;;;;5072158;28;20483;-68
2023/03/04 02:53:09;;;;;;;13.60;5.60;;;0.00;98.00;;;;;;5072347;28;20460;-68
2023/03/04 02:55:40;;;;;;;11.37;3.93;;;0.20;98.00;;;;;;5072013;28;20456;-68
2023/03/04 02:58:08;;;;;;;13.20;6.40;;;0.20;98.00;;;;;;5071077;28;20547;-68
2023/03/04 03:00:35;;;;;;;5.37;4.03;;;0.30;98.00;;;;;;5070644;28;20480;-68
2023/03/04 03:03:04;;;;;;;11.33;5.43;;;0.40;98.00;;;;;;5072346;28;20464;-68
2023/03/04 03:05:33;;;;;;;9.13;5.17;;;0.30;98.00;;;;;;5071533;28;20832;-68
2023/03/04 03:08:00;;;;;;;11.17;5.10;;;0.20;98.00;;;;;;5070772;28;20457;-68
2023/03/04 03:10:28;;;;;;;16.47;6.90;;;0.30;98.00;;;;;;5072148;28;20456;-68
2023/03/04 03:12:55;;;;;;;17.70;5.50;;;0.40;98.00;;;;;;5071957;28;20461;-69
2023/03/04 03:15:22;;;;;;;13.20;5.37;;;0.40;98.00;;;;;;5071836;28;20463;-68
2023/03/04 03:17:49;;;;;;;18.60;5.73;;;0.50;98.00;;;;;;5071934;28;20453;-69
2023/03/04 03:20:18;;;;;;;9.97;5.10;;;0.60;98.00;;;;;;5071914;28;20452;-68
2023/03/04 03:22:46;;;;;;;8.20;4.63;;;0.70;98.00;;;;;;5071605;28;20973;-68
2023/03/04 03:25:14;;;;;;;17.47;6.10;;;0.80;98.00;;;;;;5071629;28;20977;-68
2023/03/04 03:27:42;;;;;;;12.20;5.60;;;0.70;98.00;;;;;;5071582;28;20468;-68
2023/03/04 03:30:10;;;;;;;13.73;6.47;;;0.50;98.00;;;;;;5070899;28;20453;-68
2023/03/04 03:32:37;;;;;;;12.83;4.57;;;0.30;98.00;;;;;;5071490;28;20875;-68
2023/03/04 03:35:05;;;;;;;15.20;6.40;;;0.20;98.00;;;;;;5071536;28;20529;-68
2023/03/04 03:37:34;;;;;;;15.03;6.07;;;0.00;98.00;;;;;;5071202;28;20459;-68
2023/03/04 03:40:01;;;;;;;13.10;5.20;;;0.10;98.00;;;;;;5071539;28;20457;-68
2023/03/04 03:42:28;;;;;;;21.43;6.30;;;0.10;98.00;;;;;;5071528;28;20553;-68
2023/03/04 03:44:55;;;;;;;6.87;3.27;;;0.00;98.00;;;;;;5071255;28;20977;-68
2023/03/04 03:47:24;;;;;;;14.50;6.43;;;0.00;98.00;;;;;;5071395;28;20552;-68
2023/03/04 03:49:51;;;;;;;9.27;4.93;;;0.10;98.00;;;;;;5071179;28;20521;-68
2023/03/04 03:52:18;;;;;;;10.73;4.30;;;0.00;98.00;;;;;;5071234;28;20464;-68
2023/03/04 03:54:46;;;;;;;13.13;5.13;;;-0.10;98.00;;;;;;5069996;28;20449;-68
2023/03/04 03:57:13;;;;;;;15.27;6.50;;;-0.10;98.00;;;;;;5071346;28;20515;-68
2023/03/04 03:59:40;;;;;;;10.50;4.73;;;-0.10;98.00;;;;;;5071107;28;20473;-68
2023/03/04 04:02:07;;;;;;;12.30;5.30;;;0.00;98.00;;;;;;5071115;28;20625;-68
2023/03/04 04:04:34;;;;;;;6.90;4.90;;;-0.10;98.00;;;;;;5071016;28;20498;-68
2023/03/04 04:07:02;;;;;;;11.20;5.00;;;-0.20;98.00;;;;;;5069922;28;20460;-68
2023/03/04 04:09:31;;;;;;;11.83;4.73;;;-0.30;98.00;;;;;;5071264;28;20457;-68
2023/03/04 04:12:00;;;;;;;6.00;4.07;;;-0.10;98.00;;;;;;5070214;28;20457;-69
2023/03/04 04:14:27;;;;;;;5.43;4.10;;;-0.20;98.00;;;;;;5071266;28;20475;-68
2023/03/04 04:16:54;;;;;;;14.47;5.97;;;-0.40;98.00;;;;;;5071309;28;20660;-68
2023/03/04 04:19:21;;;;;;;11.80;5.63;;;-0.40;98.00;;;;;;5071288;28;20460;-68
2023/03/04 04:21:51;;;;;;;11.77;5.17;;;-0.40;98.00;;;;;;5070981;28;20485;-68
2023/03/04 04:24:18;;;;;;;10.60;5.10;;;-0.30;98.00;;;;;;5071021;28;20489;-68
2023/03/04 04:26:46;;;;;;;6.87;4.33;;;-0.10;98.00;;;;;;5070856;28;20453;-68
2023/03/04 04:29:16;;;;;;;8.83;5.40;;;-0.10;98.00;;;;;;5070905;28;20468;-68
2023/03/04 04:31:43;;;;;;;6.40;4.40;;;-0.20;98.00;;;;;;5070743;28;20554;-68
2023/03/04 04:34:10;;;;;;;10.70;5.60;;;-0.40;98.00;;;;;;5070981;28;20463;-69
2023/03/04 04:36:37;;;;;;;7.50;5.10;;;-0.50;98.00;;;;;;5070649;28;20462;-69
2023/03/04 04:39:04;;;;;;;11.07;5.00;;;-0.50;98.00;;;;;;5070776;28;20467;-68
2023/03/04 04:41:36;;;;;;;13.10;6.20;;;-0.70;98.00;;;;;;5071252;28;20889;-68
2023/03/04 04:44:03;;;;;;;7.67;4.00;;;-0.80;98.00;;;;;;5074641;28;20823;-68
2023/03/04 04:46:32;;;;;;;9.43;5.73;;;-0.50;98.00;;;;;;5074659;28;20459;-68
2023/03/04 04:48:59;;;;;;;8.97;6.00;;;-0.50;98.00;;;;;;5074762;28;20452;-68
2023/03/04 04:51:27;;;;;;;10.27;4.73;;;-0.50;98.00;;;;;;5074699;28;20476;-68
2023/03/04 04:53:55;;;;;;;7.17;3.90;;;-0.60;98.00;;;;;;5073079;28;20456;-68
2023/03/04 04:56:25;;;;;;;11.70;6.67;;;-0.60;98.00;;;;;;5074482;28;20502;-68
2023/03/04 04:58:53;;;;;;;7.30;4.60;;;-0.70;98.00;;;;;;5074285;28;20646;-69
2023/03/04 05:01:20;;;;;;;5.83;3.83;;;-0.70;98.00;;;;;;5074186;28;21010;-68
2023/03/04 05:03:52;;;;;;;9.20;4.60;;;-0.70;98.00;;;;;;5073056;28;21023;-68
2023/03/04 05:06:19;;;;;;;9.40;5.07;;;-0.90;98.00;;;;;;5074377;28;20459;-68
2023/03/04 05:08:47;;;;;;;8.10;4.97;;;-0.90;98.00;;;;;;5074155;28;20513;-68
2023/03/04 05:11:14;;;;;;;13.47;5.20;;;-0.80;98.00;;;;;;5074228;28;20954;-68
2023/03/04 05:13:41;;;;;;;15.43;6.40;;;-0.70;98.00;;;;;;5074367;28;20969;-68
2023/03/04 05:16:09;;;;;;;12.33;5.70;;;-0.50;98.00;;;;;;5074238;28;20456;-68
2023/03/04 05:18:36;;;;;;;9.40;4.80;;;-0.30;98.00;;;;;;5074043;28;20476;-68
2023/03/04 05:21:05;;;;;;;5.47;3.50;;;-0.10;98.00;;;;;;5074078;28;20577;-69
2023/03/04 05:23:36;;;;;;;11.33;4.13;;;-0.20;98.00;;;;;;5073890;28;20558;-68
2023/03/04 05:26:04;;;;;;;12.00;5.97;;;-0.30;98.00;;;;;;5074047;28;20464;-68
2023/03/04 05:28:33;;;;;;;11.37;4.43;;;-0.40;98.00;;;;;;5074052;28;20464;-69
2023/03/04 05:31:00;;;;;;;10.23;4.87;;;-0.40;98.00;;;;;;5073517;28;20459;-68
2023/03/04 05:33:28;;;;;;;14.27;5.93;;;-0.50;98.00;;;;;;5073828;28;20467;-69
2023/03/04 05:35:55;;;;;;;13.00;6.37;;;-0.50;98.00;;;;;;5073504;28;20956;-68
2023/03/04 05:38:24;;;;;;;8.90;4.17;;;-0.70;98.00;;;;;;5073435;28;20467;-68
2023/03/04 05:40:57;;;;;;;4.67;3.23;;;-0.70;98.00;;;;;;5073384;28;20456;-68
2023/03/04 05:43:24;;;;;;;10.63;4.63;;;-0.80;98.00;;;;;;5073611;28;20861;-68
2023/03/04 05:45:51;;;;;;;6.03;4.17;;;-0.90;98.00;;;;;;5073324;28;20513;-68
2023/03/04 05:48:18;;;;;;;17.87;5.67;;;-1.00;98.00;;;;;;5073571;28;20934;-68
2023/03/04 05:50:46;;;;;;;6.93;3.37;;;-1.10;98.00;;;;;;5073358;28;20456;-68
2023/03/04 05:53:13;;;;;;;7.53;4.30;;;-1.10;98.00;;;;;;5072595;28;20555;-68
2023/03/04 05:55:47;;;;;;;6.30;4.10;;;-1.10;98.00;;;;;;5073374;28;20483;-67
2023/03/04 05:58:14;;;;;;;14.50;4.60;;;-1.00;98.00;;;;;;5073443;28;20456;-67
2023/03/04 06:00:42;;;;;;;7.33;3.80;;;-1.10;98.00;;;;;;5073383;28;20459;-67
2023/03/04 06:03:15;;;;;;;21.30;5.80;;;-1.10;98.00;;;;;;5073321;28;20881;-67
2023/03/04 06:05:42;;;;;;;9.13;4.40;;;-0.80;98.00;;;;;;5073102;28;20489;-67
2023/03/04 06:08:09;;;;;;;8.37;5.00;;;-0.80;98.00;;;;;;5073310;28;20452;-67
2023/03/04 06:10:37;;;;;;;4.73;4.20;;;-0.90;98.00;;;;;;5073153;28;20452;-67
2023/03/04 06:13:06;;;;;;;5.43;3.80;;;-0.80;98.00;;;;;;5073165;28;20469;-67
2023/03/04 06:15:33;;;;;;;26.73;4.50;;;-0.90;98.00;;;;;;5072903;28;20463;-67
2023/03/04 06:18:01;;;;;;;8.63;4.47;;;-0.90;98.00;;;;;;5072966;28;20969;-67
2023/03/04 06:20:28;;;;;;;11.60;4.10;;;-1.00;98.00;;;;;;5072841;28;20466;-67
2023/03/04 06:22:55;;;;;;;12.83;6.10;;;-1.10;98.00;;;;;;5072845;28;20492;-67
2023/03/04 06:25:23;;;;;;;18.07;6.93;;;-1.10;98.00;;;;;;5072624;28;20456;-67
2023/03/04 06:27:50;;;;;;;10.80;5.00;;;-1.10;98.00;;;;;;5072945;28;20891;-66
2023/03/04 06:30:19;;;;;;;8.43;4.27;;;-1.10;98.00;;;;;;5072465;28;20826;-67
2023/03/04 06:32:47;;;;;;;10.90;4.97;;;-1.10;98.00;;;;;;5072457;28;20467;-67
2023/03/04 06:35:16;;;;;;;11.07;4.40;;;-1.10;98.00;;;;;;5072450;28;20621;-67
2023/03/04 06:37:43;;;;;;;20.60;3.37;;;-1.00;98.00;;;;;;5072126;28;20476;-67
2023/03/04 06:40:11;;;;;;;10.90;5.27;;;-0.80;98.00;;;;;;5072369;28;20949;-67
2023/03/04 06:42:38;;;;;;;6.40;3.93;;;-0.70;98.00;;;;;;5072477;28;20896;-67
2023/03/04 06:45:07;;;;;;;9.13;4.90;;;-0.70;98.00;;;;;;5072459;28;20499;-68
2023/03/04 06:47:35;;;;;;;6.97;4.30;;;-0.50;98.00;;;;;;5072282;28;20451;-68
2023/03/04 06:50:03;;;;;;;9.57;4.00;;;-0.40;98.00;;;;;;5072439;28;20460;-67
2023/03/04 06:52:30;;;;;;;8.70;4.80;;;-0.30;98.00;;;;;;5073213;28;20533;-67
2023/03/04 06:54:57;;;;;;;10.77;4.57;;;-0.30;98.00;;;;;;5072822;28;20455;-67
2023/03/04 06:57:24;;;;;;;8.70;4.67;;;-0.10;98.00;;;;;;5073244;28;20456;-67
2023/03/04 06:59:51;;;;;;;13.20;5.70;;;0.10;98.00;;;;;;5072637;28;20464;-67
2023/03/04 07:02:18;;;;;;;8.87;4.00;;;0.00;98.00;;;;;;5072187;28;20511;-63
2023/03/04 07:04:49;;;;;;;15.60;6.00;;;-0.10;98.00;;;;;;5071365;28;20585;-63
2023/03/04 07:07:16;;;;;;;8.87;5.07;;;0.00;98.00;;;;;;5071748;28;20526;-63
2023/03/04 07:09:43;;;;;;;9.37;4.73;;;0.00;98.00;;;;;;5071917;28;20946;-63
2023/03/04 07:12:10;;;;;;;7.00;4.07;;;0.10;98.00;;;;;;5072122;28;20572;-63
2023/03/04 07:14:37;;;;;;;6.67;4.03;;;0.10;98.00;;;;;;5070741;28;20467;-63
2023/03/04 07:17:04;;;;;;;10.97;5.23;;;0.10;98.00;;;;;;5071754;28;20464;-63
2023/03/04 07:19:31;;;;;;;7.30;4.40;;;0.10;98.00;;;;;;5070623;28;20452;-63
2023/03/04 07:22:00;;;;;;;6.53;4.07;;;0.30;98.00;;;;;;5071624;28;20996;-63
2023/03/04 07:24:27;;;;;;;10.20;4.33;;;0.40;98.00;;;;;;5071500;28;20463;-63
2023/03/04 07:26:54;;;;;;;6.63;3.90;;;0.60;98.00;;;;;;5071530;28;20455;-63
2023/03/04 07:29:21;;;;;;;9.93;4.27;;;0.90;98.00;;;;;;5069880;28;20461;-63
2023/03/04 07:31:49;;;;;;;8.53;3.20;;;1.00;98.00;;;;;;5071608;28;20464;-63
2023/03/04 07:34:16;;;;;;;6.77;3.90;;;1.10;98.00;;;;;;5071390;28;20456;-63
2023/03/04 07:36:44;;;;;;;7.90;4.63;;;1.20;98.00;;;;;;5071463;28;20464;-63
2023/03/04 07:39:13;;;;;;;7.80;4.17;;;1.10;98.00;;;;;;5070113;28;20465;-63
2023/03/04 07:41:40;;;;;;;9.87;4.07;;;1.10;98.00;;;;;;5071210;28;20460;-63
2023/03/04 07:44:09;;;;;;;9.53;4.80;;;1.10;98.00;;;;;;5071274;28;20460;-63
2023/03/04 07:46:36;;;;;;;8.53;3.83;;;1.20;98.00;;;;;;5071470;28;21004;-63
2023/03/04 07:49:04;;;;;;;7.23;3.77;;;1.20;98.00;;;;;;5071404;28;20492;-62
2023/03/04 07:51:32;;;;;;;12.60;5.00;;;1.20;98.00;;;;;;5071205;28;20852;-63
2023/03/04 07:54:01;;;;;;;9.50;3.77;;;1.20;98.00;;;;;;5071278;28;20461;-63
2023/03/04 07:56:31;;;;;;;6.53;3.63;;;1.40;98.00;;;;;;5071265;28;20468;-63
2023/03/04 07:58:58;;;;;;;15.60;5.67;;;1.50;98.00;;;;;;5071406;28;20457;-63
2023/03/04 08:01:27;;;;;;;5.43;3.30;;;1.60;98.00;;;;;;5071072;28;20510;-63
2023/03/04 08:03:55;;;;;;;7.10;4.47;;;1.70;98.00;;;;;;5071164;28;20543;-63
2023/03/04 08:06:23;;;;;;;8.80;4.87;;;1.70;98.00;;;;;;5071030;28;20521;-63
2023/03/04 08:08:55;;;;;;;11.10;4.73;;;1.70;98.00;;;;;;5071532;28;20824;-63
2023/03/04 08:11:23;;;;;;;10.23;4.20;;;1.70;98.00;;;;;;5071285;28;20456;-63
2023/03/04 08:13:52;;;;;;;10.20;4.57;;;1.80;98.00;;;;;;5071253;28;20472;-63
2023/03/04 08:16:21;;;;;;;5.77;3.57;;;1.80;98.00;;;;;;5070952;28;20456;-63
2023/03/04 08:18:50;;;;;;;8.40;4.77;;;1.70;98.00;;;;;;5074783;28;20456;-62
2023/03/04 08:21:19;;;;;;;7.43;4.97;;;1.80;98.00;;;;;;5075387;28;20460;-63
2023/03/04 08:23:47;;;;;;;10.50;5.40;;;1.80;98.00;;;;;;5075797;28;20511;-62
2023/03/04 08:26:18;;;;;;;7.63;5.57;;;1.80;98.00;;;;;;5075380;28;20516;-63
2023/03/04 08:28:46;;;;;;;7.80;4.30;;;1.70;98.00;;;;;;5075655;28;20465;-62
2023/03/04 08:31:16;;;;;;;12.77;4.17;;;1.60;98.00;;;;;;5075236;28;20460;-63
2023/03/04 08:33:43;;;;;;;9.33;4.27;;;1.70;98.00;;;;;;5075581;28;20841;-62
2023/03/04 08:36:11;;;;;;;11.93;4.30;;;1.80;98.00;;;;;;5075458;28;20460;-64
2023/03/04 08:38:38;;;;;;;17.13;7.30;;;1.80;98.00;;;;;;5075345;28;20472;-63
2023/03/04 08:41:06;;;;;;;5.77;4.10;;;1.80;98.00;;;;;;5075475;28;21151;-62
2023/03/04 08:43:33;;;;;;;10.03;4.80;;;1.80;98.00;;;;;;5075288;28;20541;-63
2023/03/04 08:46:00;;;;;;;13.10;5.13;;;1.70;98.00;;;;;;5075327;28;20448;-63
2023/03/04 08:48:29;;;;;;;9.90;4.03;;;1.70;98.00;;;;;;5075209;28;20539;-63
2023/03/04 08:50:58;;;;;;;8.00;4.23;;;1.60;98.00;;;;;;5075217;28;20463;-64
2023/03/04 08:53:25;;;;;;;7.83;4.90;;;1.70;98.00;;;;;;5073992;28;20973;-63
2023/03/04 08:55:52;;;;;;;8.43;5.20;;;1.70;98.00;;;;;;5075279;28;20463;-63
2023/03/04 08:58:20;;;;;;;10.50;4.23;;;1.80;98.00;;;;;;5075264;28;20452;-63
2023/03/04 09:00:50;;;;;;;12.67;5.20;;;1.70;98.00;;;;;;5075210;28;20460;-63
2023/03/04 09:03:18;;;;;;;14.47;5.33;;;1.80;98.00;;;;;;5075272;28;20512;-63
2023/03/04 09:05:47;;;;;;;12.23;5.07;;;1.90;98.00;;;;;;5075231;28;20877;-63
2023/03/04 09:08:16;;;;;;;12.73;4.77;;;1.90;98.00;;;;;;5075201;28;20846;-63
2023/03/04 09:10:43;;;;;;;10.37;5.10;;;1.90;98.00;;;;;;5074968;28;20460;-63
2023/03/04 09:13:11;;;;;;;12.90;5.90;;;1.90;98.00;;;;;;5075063;28;20451;-63
2023/03/04 09:15:44;;;;;;;12.93;5.63;;;1.90;98.00;;;;;;5068089;28;21015;-63
2023/03/04 09:18:12;;;;;;;6.87;3.90;;;1.90;98.00;;;;;;5074026;28;20946;-63
2023/03/04 09:20:39;;;;;;;11.73;4.77;;;1.90;98.00;;;;;;5073675;28;20961;-64
2023/03/04 09:23:09;;;;;;;9.10;3.93;;;1.90;98.00;;;;;;5073274;28;20488;-63
2023/03/04 09:25:36;;;;;;;8.13;4.97;;;1.90;98.00;;;;;;5072206;28;20676;-63
2023/03/04 09:28:05;;;;;;;6.43;3.53;;;2.00;98.00;;;;;;5072541;28;20461;-62
2023/03/04 09:30:33;;;;;;;5.03;3.33;;;1.90;98.00;;;;;;5073520;28;20502;-62
2023/03/04 09:33:00;;;;;;;10.23;5.40;;;1.90;98.00;;;;;;5073676;28;20459;-62
2023/03/04 09:35:28;;;;;;;9.37;4.57;;;2.00;98.00;;;;;;5073391;28;20449;-62
2023/03/04 09:37:55;;;;;;;8.77;4.47;;;2.10;98.00;;;;;;5072878;28;20465;-63
2023/03/04 09:40:27;;;;;;;18.67;4.63;;;2.00;98.00;;;;;;5073386;28;20453;-63
2023/03/04 09:42:59;;;;;;;9.60;4.10;;;2.10;98.00;;;;;;5072875;28;20476;-63
2023/03/04 09:45:34;;;;;;;5.17;2.50;;;2.10;98.00;;;;;;5073251;28;20476;-63
2023/03/04 09:48:02;;;;;;;8.03;3.87;;;2.10;98.00;;;;;;5073650;28;20961;-63
2023/03/04 09:50:33;;;;;;;8.57;3.87;;;2.10;98.00;;;;;;5072799;28;20875;-63
2023/03/04 09:53:13;;;;;;;7.43;3.90;;;2.10;98.00;;;;;;5073035;28;20457;-63
2023/03/04 09:55:43;;;;;;;6.00;3.30;;;2.20;98.00;;;;;;5073260;28;20464;-63
2023/03/04 09:58:22;;;;;;;8.33;4.00;;;2.10;98.00;;;;;;5073521;28;20827;-64
2023/03/04 10:01:01;;;;;;;12.67;3.97;;;2.10;98.00;;;;;;5033493;28;20466;-63
2023/03/04 10:03:37;;;;;;;5.60;3.90;;;2.10;98.00;;;;;;5033389;28;20486;-63
2023/03/04 10:06:09;;;;;;;8.03;4.60;;;2.40;98.00;;;;;;5033400;28;20843;-63
2023/03/04 10:08:44;;;;;;;5.40;3.63;;;2.40;98.00;;;;;;5033471;28;20450;-63
2023/03/04 10:11:15;;;;;;;12.53;3.80;;;2.50;98.00;;;;;;5032575;28;20458;-63
2023/03/04 10:14:03;;;;;;;5.37;3.43;;;2.70;98.00;;;;;;5033372;28;20462;-63
2023/03/04 10:16:35;;;;;;;9.23;3.77;;;2.70;98.00;;;;;;5033059;28;20465;-63
2023/03/04 10:19:17;;;;;;;6.47;3.27;;;2.80;98.00;;;;;;5033054;28;20557;-63
2023/03/04 10:21:48;;;;;;;3.40;2.90;;;2.80;98.00;;;;;;5031688;28;20467;-62
2023/03/04 10:24:17;;;;;;;7.70;4.03;;;2.90;98.00;;;;;;5032788;28;20487;-63
2023/03/04 10:26:50;;;;;;;8.67;4.30;;;2.90;98.00;;;;;;5033062;28;20461;-63
2023/03/04 10:29:23;;;;;;;5.00;2.90;;;2.90;98.00;;;;;;5032771;28;20460;-63
2023/03/04 10:31:54;;;;;;;5.50;3.30;;;2.70;98.00;;;;;;5032849;28;20447;-63
2023/03/04 10:34:21;;;;;;;9.60;4.17;;;2.90;98.00;;;;;;5032889;28;20534;-63
2023/03/04 10:36:59;;;;;;;4.20;2.93;;;2.90;98.00;;;;;;5032549;28;20984;-63
2023/03/04 10:39:29;;;;;;;3.10;2.07;;;2.90;98.00;;;;;;5032454;28;20998;-63
2023/03/04 10:42:00;;;;;;;9.13;4.40;;;2.90;98.00;;;;;;5032866;28;20457;-63
2023/03/04 10:44:29;;;;;;;9.30;3.80;;;2.80;98.00;;;;;;5032366;28;20490;-63
2023/03/04 10:46:58;;;;;;;5.27;3.87;;;2.70;98.00;;;;;;5032422;28;20458;-62
2023/03/04 10:49:26;;;;;;;9.03;3.60;;;2.90;98.00;;;;;;5035868;28;20459;-63
2023/03/04 10:52:02;;;;;;;11.93;4.27;;;3.00;98.00;;;;;;5072370;28;20457;-63
2023/03/04 10:54:31;;;;;;;6.40;3.63;;;3.00;98.00;;;;;;5072353;28;21022;-62
2023/03/04 10:57:04;;;;;;;10.30;4.60;;;3.20;98.00;;;;;;5072394;28;20458;-63
2023/03/04 10:59:52;;;;;;;7.20;3.57;;;3.30;98.00;;;;;;5072162;28;20869;-63
2023/03/04 11:02:25;;;;;;;10.20;4.07;;;3.30;98.00;;;;;;5071969;28;20456;-62
2023/03/04 11:05:04;;;;;;;11.03;4.00;;;3.20;98.00;;;;;;5072571;28;20822;-63
2023/03/04 11:07:33;;;;;;;9.10;3.20;;;3.30;98.00;;;;;;5072016;28;20465;-63
2023/03/04 11:10:09;;;;;;;7.27;3.77;;;3.30;98.00;;;;;;5070841;28;20813;-63
2023/03/04 11:12:38;;;;;;;13.27;4.60;;;3.40;98.00;;;;;;5070430;28;20465;-62
2023/03/04 11:15:19;;;;;;;5.63;3.60;;;3.40;98.00;;;;;;5071632;28;20926;-63
2023/03/04 11:17:50;;;;;;;6.30;3.23;;;3.30;98.00;;;;;;5071673;28;20461;-63
2023/03/04 11:20:28;;;;;;;12.47;4.90;;;3.40;98.00;;;;;;5071795;28;20555;-63
2023/03/04 11:22:59;;;;;;;9.00;3.53;;;3.50;98.00;;;;;;5071526;28;20571;-63
2023/03/04 11:25:29;;;;;;;6.70;3.57;;;3.70;98.00;;;;;;5071547;28;20499;-63
2023/03/04 11:28:02;;;;;;;7.23;4.17;;;3.70;98.00;;;;;;5071844;28;20855;-63
2023/03/04 11:30:38;;;;;;;7.83;3.87;;;3.70;98.00;;;;;;5071384;28;20530;-63
2023/03/04 11:33:14;;;;;;;9.13;3.67;;;3.80;98.00;;;;;;5071513;28;20459;-63
2023/03/04 11:35:51;;;;;;;6.73;3.63;;;3.90;98.00;;;;;;5071417;28;21163;-63
2023/03/04 11:38:20;;;;;;;11.23;4.27;;;3.80;98.00;;;;;;5071368;28;20516;-63
2023/03/04 11:40:53;;;;;;;4.80;3.20;;;3.90;98.00;;;;;;5070549;28;20527;-63
2023/03/04 11:43:26;;;;;;;11.53;4.63;;;3.80;98.00;;;;;;5031455;28;20565;-63
2023/03/04 11:46:25;;;;;;;9.30;4.03;;;3.70;98.00;;;;;;5030077;28;20954;-63
2023/03/04 11:49:07;;;;;;;7.70;4.10;;;3.80;98.00;;;;;;5031431;28;20551;-63
2023/03/04 11:51:40;;;;;;;10.53;5.73;;;3.70;98.00;;;;;;5045541;28;20455;-63
2023/03/04 11:54:17;;;;;;;5.30;3.00;;;3.70;98.00;;;;;;5031765;28;20456;-63
2023/03/04 11:56:47;;;;;;;5.53;3.57;;;3.90;98.00;;;;;;5031239;28;20524;-63
2023/03/04 11:59:32;;;;;;;8.03;3.63;;;4.00;98.00;;;;;;5031810;28;20479;-63
2023/03/04 12:02:16;;;;;;;14.00;4.60;;;4.00;98.00;;;;;;5032177;28;20471;-63
2023/03/04 12:05:04;;;;;;;11.43;5.10;;;4.10;98.00;;;;;;5031512;28;20479;-63
2023/03/04 12:08:03;;;;;;;4.73;3.20;;;4.10;98.00;;;;;;5027193;28;20833;-63
2023/03/04 12:10:38;;;;;;;7.00;4.20;;;4.20;98.00;;;;;;5045786;28;20458;-63
2023/03/04 12:13:54;;;;;;;13.93;6.20;;;4.30;98.00;;;;;;5071416;28;20449;-63
2023/03/04 12:16:43;;;;;;;6.60;4.77;;;4.40;98.00;;;;;;5008869;28;20560;-63
2023/03/04 12:19:27;;;;;;;7.93;3.97;;;4.30;98.00;;;;;;5008878;28;20462;-64
2023/03/04 12:22:11;;;;;;;8.73;4.30;;;4.20;98.00;;;;;;5059327;28;20998;-63
2023/03/04 12:25:07;;;;;;;13.17;4.63;;;4.20;98.00;;;;;;5070955;28;21012;-62
2023/03/04 12:27:42;;;;;;;7.60;4.70;;;4.30;98.00;;;;;;5070490;28;20459;-63
2023/03/04 12:30:25;;;;;;;10.20;4.50;;;4.30;98.00;;;;;;5071021;28;20464;-63
2023/03/04 12:33:03;;;;;;;8.47;4.30;;;4.10;98.00;;;;;;5070925;28;20471;-63
2023/03/04 12:35:38;;;;;;;8.73;4.47;;;4.20;98.00;;;;;;5070115;28;20516;-63
2023/03/04 12:38:22;;;;;;;9.00;3.77;;;4.30;98.00;;;;;;5069603;28;20518;-63
2023/03/04 12:40:57;;;;;;;7.10;3.73;;;4.30;98.00;;;;;;5069840;28;20492;-63
2023/03/04 12:43:40;;;;;;;6.30;3.33;;;4.40;98.00;;;;;;5070652;28;20489;-62
2023/03/04 12:46:18;;;;;;;3.70;2.90;;;4.40;98.00;;;;;;5070757;28;20507;-63
2023/03/04 12:48:54;;;;;;;7.53;4.70;;;4.50;98.00;;;;;;5070947;28;20541;-63
2023/03/04 12:51:31;;;;;;;5.77;3.60;;;4.50;98.00;;;;;;5070725;28;20872;-63
2023/03/04 12:54:12;;;;;;;5.50;3.90;;;4.50;98.00;;;;;;5070551;28;20472;-63
2023/03/04 12:56:45;;;;;;;7.40;4.40;;;4.50;98.00;;;;;;5070579;28;20453;-63
2023/03/04 12:59:16;;;;;;;8.00;4.87;;;4.60;98.00;;;;;;5070777;28;20552;-63
2023/03/04 13:01:49;;;;;;;8.00;4.47;;;4.50;98.00;;;;;;5070824;28;20966;-63
2023/03/04 13:04:23;;;;;;;11.03;4.43;;;4.50;98.00;;;;;;5073682;28;20478;-63